Time;durP1;ratioP1;P1;durP2;ratioP2;P2;SDS_P1;SDS_P2;PMS_P1;PMS_P2;Temp;Humidity;BMP_temperature;BMP_pressure;BME280_temperature;BME280_humidity;BME280_pressure;Samples;Min_cycle;Max_cycle;Signal;HPM_P1;HPM_P2
2021/05/06 00:31:15;;;;;;;11.70;2.60;;;;;;;12.56;53.42;100627.38;4972778;28;20070;-67
2021/05/06 00:33:40;;;;;;;7.32;2.40;;;;;;;12.49;53.10;100624.28;4971946;28;20051;-66
2021/05/06 00:36:07;;;;;;;11.93;2.65;;;;;;;12.62;53.22;100631.59;4972673;28;20074;-66
2021/05/06 00:38:47;;;;;;;6.10;2.22;;;;;;;12.09;53.75;100637.50;4971322;28;20234;-68
2021/05/06 00:44:10;;;;;;;9.25;2.63;;;;;;;12.24;53.18;100628.72;4971091;28;20055;-67
2021/05/06 00:57:14;;;;;;;13.75;2.40;;;;;;;11.69;53.34;100624.97;4939925;28;20058;-68
2021/05/06 01:10:11;;;;;;;10.90;2.35;;;;;;;12.06;54.53;100631.81;4958233;28;20051;-67
2021/05/06 01:12:41;;;;;;;8.13;1.85;;;;;;;10.88;54.52;100623.75;4970717;28;20058;-68
2021/05/06 01:15:10;;;;;;;8.30;2.30;;;;;;;10.72;52.58;100624.50;4956330;28;20058;-68
2021/05/06 01:17:37;;;;;;;11.68;2.20;;;;;;;10.12;54.92;100630.44;4954257;28;20051;-69
2021/05/06 01:20:06;;;;;;;8.05;2.22;;;;;;;10.44;55.22;100618.34;4955488;28;20051;-68
2021/05/06 01:22:33;;;;;;;8.35;2.28;;;;;;;10.05;53.97;100621.75;4953515;29;20047;-69
2021/05/06 01:25:01;;;;;;;8.13;2.30;;;;;;;10.06;54.05;100617.88;4957769;28;20043;-68
2021/05/06 01:27:41;;;;;;;8.10;1.70;;;;;;;10.16;53.53;100619.63;4950877;28;20047;-68
2021/05/06 01:32:53;;;;;;;10.75;1.73;;;;;;;10.45;53.46;100617.19;4970870;28;20058;-67
2021/05/06 01:40:55;;;;;;;7.28;1.80;;;;;;;10.13;53.79;100603.69;4938832;28;20435;-68
2021/05/06 01:46:23;;;;;;;11.55;1.67;;;;;;;9.37;53.72;100595.56;4954817;28;20414;-69
2021/05/06 01:59:51;;;;;;;;;;;;;;;9.40;56.12;100578.47;4894841;29;20068;-67
2021/05/06 02:02:19;;;;;;;9.80;1.70;;;;;;;10.44;53.76;100571.53;4894802;29;19930;-69
2021/05/06 02:04:46;;;;;;;12.63;1.80;;;;;;;9.35;55.22;100576.66;4894755;29;20055;-67
2021/05/06 02:07:15;;;;;;;11.05;2.22;;;;;;;9.54;58.22;100569.06;4895330;29;20052;-70
2021/05/06 02:09:50;;;;;;;9.02;1.60;;;;;;;9.32;54.41;100566.28;4897048;28;20452;-67
2021/05/06 02:12:20;;;;;;;6.70;1.63;;;;;;;9.15;55.91;100565.28;4888756;29;20049;-70
2021/05/06 02:14:56;;;;;;;8.05;1.73;;;;;;;8.78;56.14;100564.41;4879591;29;20400;-68
2021/05/06 02:17:23;;;;;;;6.40;1.67;;;;;;;9.20;56.48;100556.94;4909845;29;20063;-68
2021/05/06 02:19:54;;;;;;;7.55;2.03;;;;;;;8.99;56.59;100554.63;4894067;29;20048;-68
2021/05/06 02:22:22;;;;;;;5.90;1.40;;;;;;;8.77;56.72;100538.03;4895842;29;20048;-68
2021/05/06 02:24:52;;;;;;;6.18;2.00;;;;;;;8.95;56.44;100537.13;4897029;29;20495;-67
2021/05/06 02:27:19;;;;;;;8.55;1.80;;;;;;;9.10;55.74;100539.53;4906048;29;20096;-68
2021/05/06 02:29:47;;;;;;;7.53;2.22;;;;;;;8.84;56.50;100529.38;4914078;29;20052;-69
2021/05/06 02:32:14;;;;;;;6.30;1.80;;;;;;;8.66;57.06;100522.09;4898344;29;20055;-67
2021/05/06 02:34:42;;;;;;;8.73;1.98;;;;;;;9.33;57.03;100514.88;4914543;29;20467;-67
2021/05/06 02:37:10;;;;;;;5.82;1.60;;;;;;;9.38;56.41;100512.00;4948200;28;20054;-69
2021/05/06 02:39:37;;;;;;;5.90;1.70;;;;;;;9.59;57.00;100513.94;4957141;28;20058;-69
2021/05/06 02:42:04;;;;;;;7.75;1.45;;;;;;;9.55;54.12;100514.91;4957148;28;20093;-67
2021/05/06 02:44:35;;;;;;;8.95;2.40;;;;;;;9.54;54.54;100505.00;4957657;28;20054;-68
2021/05/06 02:47:03;;;;;;;8.48;2.13;;;;;;;9.57;54.45;100502.44;4973445;28;20046;-67
2021/05/06 02:49:31;;;;;;;8.45;2.00;;;;;;;9.64;54.15;100493.78;4974911;28;20065;-68
2021/05/06 02:52:47;;;;;;;7.20;1.70;;;;;;;9.90;53.99;100487.31;4955611;28;20057;-67
2021/05/06 02:54:53;;;;;;;9.23;2.10;;;;;;;9.80;53.87;100492.25;4965813;28;20058;-67
2021/05/06 02:57:38;;;;;;;7.38;1.85;;;;;;;10.07;54.02;100470.09;4973977;28;20058;-68
2021/05/06 03:02:56;;;;;;;10.07;1.85;;;;;;;10.27;53.50;100464.06;4960487;28;20055;-68
2021/05/06 03:05:27;;;;;;;7.22;2.58;;;;;;;10.28;54.14;100464.88;4974652;28;20153;-66
2021/05/06 03:24:27;;;;;;;6.60;1.83;;;;;;;9.83;55.03;100455.88;4956336;28;20049;-65
2021/05/06 03:26:55;;;;;;;7.45;1.55;;;;;;;9.85;54.82;100443.44;4971496;28;20051;-66
2021/05/06 03:29:28;;;;;;;7.88;1.80;;;;;;;10.03;54.58;100452.59;4956119;28;20065;-67
2021/05/06 03:34:45;;;;;;;5.90;1.65;;;;;;;9.84;54.68;100438.25;4957187;28;20571;-70
2021/05/06 04:27:48;;;;;;;9.65;2.80;;;;;;;10.09;61.11;100388.06;4963703;28;20055;-68
2021/05/06 04:30:38;;;;;;;11.40;2.75;;;;;;;10.32;59.17;100384.06;4958035;28;20047;-70
2021/05/06 04:35:53;;;;;;;11.57;3.00;;;;;;;10.01;60.41;100397.06;4973841;28;20053;-69
2021/05/06 04:38:23;;;;;;;10.65;3.00;;;;;;;9.92;60.99;100398.97;4955508;28;20046;-70
2021/05/06 04:57:34;;;;;;;7.93;2.95;;;;;;;10.11;62.35;100380.31;4930055;28;20101;-68
2021/05/06 05:05:01;;;;;;;10.90;2.70;;;;;;;9.78;64.33;100368.00;4931497;29;20059;-69
2021/05/06 05:07:35;;;;;;;12.05;2.90;;;;;;;10.11;64.34;100361.06;4931221;29;20051;-72
2021/05/06 05:26:53;;;;;;;12.82;3.72;;;;;;;9.64;67.86;100342.53;4871327;29;20536;-68
2021/05/06 05:29:21;;;;;;;13.75;3.65;;;;;;;9.72;68.19;100347.25;4857418;29;20188;-68
2021/05/06 05:31:48;;;;;;;10.27;3.50;;;;;;;9.49;69.18;100353.91;4852137;29;20090;-68
2021/05/06 05:34:33;;;;;;;10.27;4.05;;;;;;;9.64;68.71;100345.28;4851112;29;20171;-69
2021/05/06 05:37:00;;;;;;;14.93;4.10;;;;;;;9.90;67.94;100343.47;4846742;29;20049;-68
2021/05/06 05:39:35;;;;;;;12.55;3.97;;;;;;;9.95;68.47;100341.38;4846747;29;20049;-67
2021/05/06 05:55:41;;;;;;;13.60;5.13;;;;;;;9.68;69.44;100347.06;4892436;29;20597;-69
2021/05/06 05:58:08;;;;;;;14.88;6.30;;;;;;;9.86;69.37;100340.53;4920214;29;20052;-70
2021/05/06 06:00:35;;;;;;;14.18;4.38;;;;;;;9.89;70.93;100339.06;4931635;29;20059;-69
2021/05/06 06:03:02;;;;;;;12.23;3.95;;;;;;;9.96;70.04;100343.00;4933180;29;20063;-69
2021/05/06 06:05:32;;;;;;;13.40;3.95;;;;;;;10.05;70.09;100332.84;4931033;29;20040;-68
2021/05/06 06:08:00;;;;;;;11.13;3.75;;;;;;;9.87;70.98;100330.31;4929283;29;20040;-69
2021/05/06 06:10:26;;;;;;;11.85;4.78;;;;;;;9.74;72.15;100329.31;4932333;29;20051;-69
2021/05/06 06:12:54;;;;;;;11.85;5.18;;;;;;;9.73;72.93;100324.13;4931301;29;20068;-70
2021/05/06 06:18:16;;;;;;;14.57;5.20;;;;;;;10.57;75.76;100316.44;4928337;29;20062;-68
2021/05/06 06:20:47;;;;;;;10.85;4.60;;;;;;;10.67;75.19;100311.41;4932327;29;20052;-71
2021/05/06 06:23:14;;;;;;;13.85;4.40;;;;;;;11.09;74.73;100302.31;4931968;29;20074;-70
2021/05/06 06:25:41;;;;;;;13.68;4.50;;;;;;;11.09;70.98;100301.50;4929264;29;20523;-71
2021/05/06 06:28:11;;;;;;;13.68;4.50;;;;;;;11.25;72.94;100294.34;4920651;29;20067;-72
2021/05/06 06:30:42;;;;;;;14.68;4.03;;;;;;;11.56;70.29;100300.41;4930524;29;20051;-71
2021/05/06 06:33:09;;;;;;;11.05;4.20;;;;;;;11.50;69.78;100290.69;4929961;29;20507;-72
2021/05/06 06:35:36;;;;;;;9.70;3.83;;;;;;;11.19;69.35;100284.63;4924202;29;20063;-70
2021/05/06 06:38:03;;;;;;;10.77;4.32;;;;;;;11.40;68.85;100287.50;4931322;29;20051;-68
2021/05/06 06:40:30;;;;;;;13.73;4.40;;;;;;;11.91;67.90;100287.28;4931914;29;20350;-66
2021/05/06 06:43:03;;;;;;;10.45;4.53;;;;;;;11.81;66.54;100282.97;4923627;29;20063;-67
2021/05/06 06:45:30;;;;;;;11.43;4.15;;;;;;;11.69;67.92;100274.59;4930919;29;20048;-69
2021/05/06 06:47:57;;;;;;;9.52;4.13;;;;;;;11.64;67.28;100268.41;4929554;29;20048;-71
2021/05/06 06:50:25;;;;;;;13.35;4.28;;;;;;;11.73;66.34;100266.47;4930604;29;20052;-68
2021/05/06 06:52:52;;;;;;;13.38;4.00;;;;;;;11.70;66.98;100264.38;4929019;29;20051;-68
2021/05/06 06:55:19;;;;;;;11.73;4.28;;;;;;;11.86;66.34;100268.16;4946666;28;20063;-69
2021/05/06 06:57:46;;;;;;;9.75;4.10;;;;;;;11.93;66.42;100263.75;4968930;28;20062;-69
2021/05/06 07:00:13;;;;;;;13.18;5.25;;;;;;;11.84;66.83;100253.88;4952192;28;20612;-69
2021/05/06 07:02:40;;;;;;;9.63;4.40;;;;;;;11.56;67.54;100247.22;4968687;28;20077;-67
2021/05/06 07:05:09;;;;;;;10.70;4.35;;;;;;;11.73;68.00;100236.13;4968860;28;20050;-70
2021/05/06 07:07:39;;;;;;;12.13;4.88;;;;;;;11.35;67.65;100234.13;4952792;28;20066;-69
2021/05/06 07:10:06;;;;;;;15.27;5.60;;;;;;;11.48;68.93;100231.47;4970240;28;20466;-69
2021/05/06 07:12:33;;;;;;;14.20;5.57;;;;;;;11.99;67.87;100242.28;4973297;28;20046;-71
2021/05/06 07:15:00;;;;;;;10.07;4.65;;;;;;;12.11;66.97;100239.63;4955620;28;20054;-70
2021/05/06 07:17:27;;;;;;;9.23;4.32;;;;;;;11.88;66.44;100238.28;4938895;28;20070;-70
2021/05/06 07:19:55;;;;;;;11.50;5.03;;;;;;;11.54;67.98;100230.97;4973452;28;20069;-69
2021/05/06 07:22:22;;;;;;;12.15;4.75;;;;;;;11.77;68.06;100228.78;4955517;28;20062;-69
2021/05/06 07:24:50;;;;;;;10.73;4.85;;;;;;;11.90;67.60;100222.22;4954929;28;20078;-66
2021/05/06 07:27:20;;;;;;;15.27;4.97;;;;;;;11.24;68.51;100221.84;4971508;28;20062;-66
2021/05/06 07:29:51;;;;;;;14.68;4.90;;;;;;;10.87;69.60;100208.81;4972229;28;21374;-67
2021/05/06 07:32:19;;;;;;;9.70;4.47;;;;;;;10.67;70.58;100211.47;4973073;28;20145;-68
2021/05/06 07:34:48;;;;;;;11.95;4.55;;;;;;;10.77;70.45;100206.44;4972848;28;20055;-68
2021/05/06 07:37:17;;;;;;;10.85;5.25;;;;;;;10.56;70.52;100210.16;4972073;28;20494;-66
2021/05/06 07:39:47;;;;;;;12.60;4.72;;;;;;;10.32;72.04;100216.16;4940002;28;20050;-68
2021/05/06 07:42:17;;;;;;;12.73;4.37;;;;;;;10.36;71.83;100199.81;4953166;28;20511;-69
2021/05/06 07:44:45;;;;;;;13.10;4.50;;;;;;;10.48;71.22;100186.22;4972556;28;20513;-67
2021/05/06 07:47:15;;;;;;;11.65;4.68;;;;;;;10.44;71.61;100174.22;4954845;28;20138;-68
2021/05/06 07:49:49;;;;;;;;;;;;;;;10.52;71.12;100168.72;4970075;28;20138;-66
2021/05/06 07:52:20;;;;;;;16.13;5.22;;;;;;;10.52;71.98;100174.22;4971858;28;20373;-70
2021/05/06 07:54:55;;;;;;;13.02;4.80;;;;;;;10.74;70.41;100179.50;4971738;28;20486;-66
2021/05/06 07:57:24;;;;;;;13.20;4.90;;;;;;;10.49;71.40;100171.31;4969253;28;20051;-68
2021/05/06 07:59:51;;;;;;;9.77;4.85;;;;;;;10.69;71.38;100174.19;4955521;28;20061;-69
2021/05/06 08:02:19;;;;;;;16.92;4.75;;;;;;;10.52;71.52;100165.94;4966722;28;20059;-70
2021/05/06 08:04:46;;;;;;;15.43;5.82;;;;;;;10.28;71.75;100162.91;4959898;28;20046;-67
2021/05/06 08:07:13;;;;;;;16.48;7.22;;;;;;;10.55;70.96;100148.78;4955254;28;20051;-67
2021/05/06 08:09:41;;;;;;;11.68;4.50;;;;;;;10.66;70.73;100146.47;4972852;28;20049;-67
2021/05/06 08:12:08;;;;;;;11.13;4.53;;;;;;;10.99;69.43;100153.03;4969251;28;20502;-69
2021/05/06 08:14:35;;;;;;;13.38;3.92;;;;;;;10.78;69.83;100146.59;4962887;28;20059;-67
2021/05/06 08:17:04;;;;;;;11.15;4.13;;;;;;;10.89;69.78;100147.88;4971688;28;20417;-70
2021/05/06 08:19:36;;;;;;;11.68;3.42;;;;;;;11.03;70.12;100141.03;4954729;28;20422;-69
2021/05/06 08:22:03;;;;;;;10.05;3.58;;;;;;;10.87;70.57;100139.13;4954887;28;20062;-68
2021/05/06 08:24:30;;;;;;;9.55;2.92;;;;;;;10.82;69.42;100139.31;4941648;28;20061;-68
2021/05/06 08:26:57;;;;;;;11.18;2.80;;;;;;;10.60;70.14;100134.03;4973987;28;20061;-67
2021/05/06 08:29:25;;;;;;;7.15;3.00;;;;;;;10.66;69.40;100125.28;4956346;28;20511;-68
2021/05/06 08:31:54;;;;;;;10.77;3.35;;;;;;;10.86;68.99;100098.97;4972599;28;20167;-68
2021/05/06 08:34:21;;;;;;;14.32;4.20;;;;;;;10.77;69.35;100076.13;4973405;28;20054;-68
2021/05/06 08:36:49;;;;;;;9.68;3.10;;;;;;;10.71;69.23;100072.75;4973731;28;20054;-69
2021/05/06 08:39:16;;;;;;;8.02;2.45;;;;;;;11.00;69.82;100072.78;4972872;28;20062;-67
2021/05/06 08:41:43;;;;;;;8.75;2.85;;;;;;;10.57;69.86;100082.34;4971620;28;20051;-67
2021/05/06 08:44:13;;;;;;;8.95;3.38;;;;;;;10.69;70.09;100077.78;4972922;28;20482;-68
2021/05/06 08:46:50;;;;;;;;;;;;;;;10.73;69.37;100080.69;4973077;28;20047;-68
2021/05/06 08:49:17;;;;;;;12.55;3.05;;;;;;;10.91;69.29;100080.28;4956488;28;19949;-69
2021/05/06 08:51:44;;;;;;;7.20;2.75;;;;;;;10.80;68.73;100076.28;4971944;28;20050;-68
2021/05/06 08:54:11;;;;;;;10.32;2.80;;;;;;;10.77;68.30;100085.22;4972163;28;20436;-69
2021/05/06 08:56:38;;;;;;;10.32;2.88;;;;;;;10.49;69.93;100073.00;4972136;28;20047;-68
2021/05/06 08:59:09;;;;;;;7.55;3.33;;;;;;;10.59;69.79;100061.63;4973017;28;20058;-70
2021/05/06 09:01:36;;;;;;;7.15;2.70;;;;;;;10.54;69.61;100058.22;4956272;28;20077;-69
2021/05/06 09:04:03;;;;;;;7.03;3.03;;;;;;;10.45;70.05;100062.94;4972284;28;20062;-68
2021/05/06 09:06:34;;;;;;;6.90;2.40;;;;;;;10.41;69.50;100065.56;4973286;28;20054;-70
2021/05/06 09:09:06;;;;;;;11.70;2.70;;;;;;;10.36;70.70;100064.91;4940970;28;20051;-71
2021/05/06 09:11:46;;;;;;;9.02;2.45;;;;;;;10.42;70.21;100083.72;4956414;28;20063;-68
2021/05/06 09:14:14;;;;;;;10.60;2.65;;;;;;;10.23;70.92;100100.56;4957547;28;20132;-70
2021/05/06 09:16:43;;;;;;;7.40;2.55;;;;;;;10.33;70.81;100099.44;4954670;28;20069;-70
2021/05/06 09:19:11;;;;;;;16.45;8.77;;;;;;;10.63;71.02;100101.16;4934945;28;20043;-70
2021/05/06 09:21:42;;;;;;;18.63;9.02;;;;;;;10.64;72.96;100112.94;4972196;28;20047;-71
2021/05/06 09:24:13;;;;;;;8.70;3.50;;;;;;;10.39;74.21;100116.59;4954729;28;20426;-70
2021/05/06 09:26:41;;;;;;;11.13;2.83;;;;;;;10.55;73.13;100096.44;4971306;28;20114;-68
2021/05/06 09:29:10;;;;;;;9.75;3.08;;;;;;;10.43;74.19;100071.53;4954668;28;20074;-65
2021/05/06 09:31:39;;;;;;;7.00;2.63;;;;;;;10.46;74.40;100064.59;4954572;28;20082;-69
2021/05/06 09:34:08;;;;;;;10.27;2.78;;;;;;;10.32;74.86;100053.75;4970262;28;20081;-67
2021/05/06 09:36:36;;;;;;;8.75;2.67;;;;;;;10.07;75.76;100047.16;4922528;28;20054;-66
2021/05/06 09:39:07;;;;;;;10.57;3.00;;;;;;;9.97;76.83;100032.94;4972018;28;20399;-67
2021/05/06 09:41:36;;;;;;;8.25;3.28;;;;;;;10.12;77.46;100029.69;4954243;28;20418;-66
2021/05/06 09:44:11;;;;;;;8.15;2.63;;;;;;;10.12;76.71;100029.69;4971723;28;20055;-68
2021/05/06 09:46:57;;;;;;;13.18;3.38;;;;;;;10.30;76.87;100020.25;4939965;28;20489;-67
2021/05/06 09:49:25;;;;;;;8.50;3.40;;;;;;;9.99;78.03;100000.38;4969835;28;20047;-66
2021/05/06 09:51:59;;;;;;;6.10;3.03;;;;;;;10.33;77.09;100002.25;4970031;28;20179;-67
2021/05/06 09:54:29;;;;;;;7.97;3.03;;;;;;;10.30;78.05;99990.00;4953182;28;20043;-71
2021/05/06 09:56:57;;;;;;;10.23;3.08;;;;;;;10.64;77.56;99980.75;4922793;28;20051;-70
2021/05/06 09:59:29;;;;;;;5.80;2.83;;;;;;;11.28;77.41;99982.13;4953196;28;20039;-67
2021/05/06 10:02:10;;;;;;;8.53;3.17;;;;;;;11.02;75.45;99976.81;4938419;28;20053;-68
2021/05/06 10:04:43;;;;;;;8.32;2.90;;;;;;;11.14;77.11;99981.63;4949612;28;20051;-71
2021/05/06 10:07:22;;;;;;;7.45;2.70;;;;;;;10.94;75.13;99979.63;4954095;28;20043;-69
2021/05/06 10:10:06;;;;;;;;;;;;;;;11.49;74.19;99969.16;4971218;28;20046;-69
2021/05/06 10:12:37;;;;;;;7.00;2.70;;;;;;;10.90;74.29;99982.25;4954481;28;19949;-69
2021/05/06 10:15:08;;;;;;;9.57;2.80;;;;;;;10.92;75.77;99971.69;4953552;28;20059;-71
2021/05/06 10:17:37;;;;;;;6.18;2.50;;;;;;;11.50;74.45;99961.69;4942908;28;20086;-69
2021/05/06 10:20:06;;;;;;;6.50;2.63;;;;;;;11.60;74.06;99961.28;4963854;28;20475;-69
2021/05/06 10:22:34;;;;;;;13.00;5.50;;;;;;;11.35;74.96;99958.41;4946501;28;20298;-69
2021/05/06 10:25:03;;;;;;;8.82;3.10;;;;;;;11.18;75.18;99950.28;4962256;28;20047;-70
2021/05/06 10:27:30;;;;;;;8.25;2.63;;;;;;;11.64;74.22;99951.19;4944624;28;20051;-69
2021/05/06 10:29:57;;;;;;;4.88;2.42;;;;;;;11.62;73.19;99951.53;4961944;28;20069;-69
2021/05/06 10:32:27;;;;;;;38.60;18.15;;;;;;;11.77;73.08;99939.09;4959611;28;20059;-67
2021/05/06 10:34:56;;;;;;;7.10;2.88;;;;;;;11.60;73.92;99944.72;4961247;28;20046;-70
2021/05/06 10:37:27;;;;;;;6.25;2.13;;;;;;;11.53;73.57;99931.50;4960329;28;20759;-69
2021/05/06 10:39:55;;;;;;;6.32;2.42;;;;;;;11.12;73.91;99931.53;4959089;28;20610;-66
2021/05/06 10:42:32;;;;;;;7.93;2.40;;;;;;;11.09;76.10;99929.41;4941017;28;20046;-72
2021/05/06 10:45:01;;;;;;;7.53;3.00;;;;;;;11.22;75.44;99942.16;4959122;28;20070;-68
2021/05/06 10:47:37;;;;;;;7.13;3.13;;;;;;;11.34;75.87;99928.41;4963303;28;20055;-69
2021/05/06 10:50:07;;;;;;;7.43;2.72;;;;;;;11.32;75.29;99933.47;4963314;28;20062;-70
2021/05/06 10:52:41;;;;;;;5.82;3.25;;;;;;;11.31;75.47;99926.34;4963521;28;20061;-72
2021/05/06 10:55:10;;;;;;;8.10;2.63;;;;;;;11.64;73.79;99924.44;4949307;28;20070;-70
2021/05/06 10:57:38;;;;;;;7.60;2.67;;;;;;;11.18;75.17;99925.47;4960786;28;20406;-70
2021/05/06 11:00:23;;;;;;;6.13;2.60;;;;;;;10.88;76.08;99914.84;4968742;28;20050;-69
2021/05/06 11:02:57;;;;;;;7.72;2.90;;;;;;;10.62;78.18;99920.50;4971193;28;20059;-71
2021/05/06 11:05:27;;;;;;;6.30;2.85;;;;;;;10.67;78.55;99903.00;4958196;28;20043;-69
2021/05/06 11:08:17;;;;;;;15.60;10.47;;;;;;;10.84;78.44;99900.94;4956479;28;20054;-68
2021/05/06 11:10:47;;;;;;;9.52;4.75;;;;;;;11.07;76.99;99882.91;4891327;29;20060;-68
2021/05/06 11:13:15;;;;;;;6.97;2.58;;;;;;;10.73;78.32;99871.34;4878484;29;20576;-68
2021/05/06 11:15:43;;;;;;;6.50;2.33;;;;;;;10.90;76.99;99874.78;4891826;29;20057;-70
2021/05/06 11:18:12;;;;;;;6.28;2.40;;;;;;;10.58;79.35;99886.53;4895403;29;20057;-70
2021/05/06 11:20:42;;;;;;;5.30;2.67;;;;;;;10.45;80.95;99884.81;4878421;29;20048;-71
2021/05/06 11:23:23;;;;;;;4.57;2.10;;;;;;;10.82;78.91;99863.84;4882334;29;20071;-70
2021/05/06 11:25:52;;;;;;;5.00;2.28;;;;;;;10.67;79.45;99856.97;4900719;29;20788;-69
2021/05/06 11:28:19;;;;;;;4.53;2.22;;;;;;;10.81;79.05;99852.00;4884416;29;20647;-67
2021/05/06 11:30:59;;;;;;;3.47;2.13;;;;;;;11.00;78.08;99841.31;4901219;29;20052;-72
2021/05/06 11:33:28;;;;;;;8.02;4.03;;;;;;;10.91;78.71;99837.81;4898947;29;20048;-68
2021/05/06 11:36:11;;;;;;;4.47;2.40;;;;;;;11.14;77.40;99830.03;4886004;29;20044;-67
2021/05/06 11:38:47;;;;;;;3.70;2.13;;;;;;;11.25;76.73;99829.25;4900625;29;20053;-70
2021/05/06 11:41:14;;;;;;;;;;;;;;;11.04;78.20;99838.69;4901478;29;20057;-69
2021/05/06 11:43:58;;;;;;;3.42;2.15;;;;;;;10.95;78.93;99838.75;4900969;29;20060;-70
2021/05/06 11:46:29;;;;;;;3.90;2.42;;;;;;;10.72;78.67;99842.22;4883550;29;20059;-69
2021/05/06 11:48:58;;;;;;;5.10;3.38;;;;;;;10.83;79.00;99844.22;4965247;28;20681;-70
2021/05/06 11:51:31;;;;;;;6.63;4.47;;;;;;;10.72;78.69;99837.47;4969423;28;20046;-69
2021/05/06 11:54:05;;;;;;;7.47;5.53;;;;;;;10.68;79.08;99833.00;4957264;28;20050;-70
2021/05/06 11:56:34;;;;;;;9.02;5.60;;;;;;;10.65;79.07;99837.22;4955954;28;20051;-71
2021/05/06 11:59:02;;;;;;;8.02;4.43;;;;;;;10.78;78.47;99833.41;4957626;28;20471;-69
2021/05/06 12:01:29;;;;;;;7.50;3.38;;;;;;;10.74;78.54;99826.94;4966813;28;20066;-71
2021/05/06 12:03:56;;;;;;;7.65;2.40;;;;;;;11.05;77.25;99812.75;4968995;28;20053;-70
2021/05/06 12:06:34;;;;;;;5.28;2.60;;;;;;;10.99;77.76;99819.59;4939332;28;20042;-68
2021/05/06 12:09:04;;;;;;;3.85;2.20;;;;;;;10.90;78.69;99818.88;4969013;28;20051;-70
2021/05/06 12:11:41;;;;;;;4.88;2.53;;;;;;;10.97;79.26;99814.44;4969603;28;20527;-70
2021/05/06 12:14:10;;;;;;;6.85;3.10;;;;;;;10.90;78.11;99813.34;4970248;28;20061;-70
2021/05/06 12:16:37;;;;;;;5.53;2.90;;;;;;;10.70;78.71;99815.00;4957905;28;20050;-71
2021/05/06 12:19:07;;;;;;;5.47;3.08;;;;;;;10.60;80.49;99817.34;4969178;28;20070;-69
2021/05/06 12:21:42;;;;;;;4.38;2.58;;;;;;;10.62;80.32;99815.84;4967949;28;20054;-71
2021/05/06 12:24:11;;;;;;;7.53;2.67;;;;;;;10.62;80.05;99817.78;4968788;28;20073;-70
2021/05/06 12:26:40;;;;;;;6.65;2.97;;;;;;;10.39;80.06;99825.56;4941786;28;20519;-70
2021/05/06 12:29:19;;;;;;;4.57;2.50;;;;;;;10.48;79.68;99837.34;4969934;28;20054;-70
2021/05/06 12:31:48;;;;;;;4.72;2.45;;;;;;;10.73;79.32;99841.88;4955477;28;20050;-68
2021/05/06 12:34:18;;;;;;;4.93;2.50;;;;;;;10.62;80.54;99818.63;4957100;28;20062;-68
2021/05/06 12:36:50;;;;;;;4.75;2.70;;;;;;;10.65;80.44;99815.19;4968583;28;20518;-67
2021/05/06 12:39:19;;;;;;;3.60;2.15;;;;;;;10.69;80.15;99820.81;4957521;28;20050;-68
2021/05/06 12:41:51;;;;;;;5.80;2.40;;;;;;;10.71;80.91;99824.88;4955618;28;20061;-67
2021/05/06 12:44:42;;;;;;;4.13;2.20;;;;;;;10.55;80.80;99832.09;4968414;28;20247;-68
2021/05/06 12:47:24;;;;;;;4.32;2.70;;;;;;;10.51;81.61;99833.13;4956086;28;20049;-68
2021/05/06 12:50:10;;;;;;;4.53;2.40;;;;;;;10.71;81.22;99816.59;4956264;28;20070;-66
2021/05/06 12:52:39;;;;;;;7.00;3.00;;;;;;;10.81;80.76;99816.19;4954986;28;20055;-67
2021/05/06 12:55:18;;;;;;;7.43;2.60;;;;;;;10.78;79.86;99830.66;4969912;28;20043;-66
2021/05/06 12:58:02;;;;;;;7.28;3.08;;;;;;;10.64;80.23;99837.53;4953842;28;20050;-67
2021/05/06 13:00:32;;;;;;;4.50;2.88;;;;;;;10.01;82.61;99841.28;4954676;28;20050;-68
2021/05/06 13:03:04;;;;;;;7.30;2.10;;;;;;;10.54;81.84;99830.50;4935195;28;20066;-68
2021/05/06 13:05:33;;;;;;;10.02;2.55;;;;;;;10.66;79.85;99829.75;4952726;28;20047;-68
2021/05/06 13:08:00;;;;;;;5.03;2.22;;;;;;;10.70;79.00;99836.22;4952501;28;20550;-68
2021/05/06 13:10:40;;;;;;;5.22;2.45;;;;;;;10.90;79.16;99849.19;4935292;28;20388;-68
2021/05/06 13:13:09;;;;;;;7.03;2.00;;;;;;;10.37;79.14;99847.16;4970923;28;20047;-69
2021/05/06 13:15:49;;;;;;;;;;;;;;;10.33;80.06;99861.88;4951491;28;20046;-68
2021/05/06 13:18:17;;;;;;;4.17;2.40;;;;;;;10.58;79.06;99858.19;4970092;28;19933;-69
2021/05/06 13:20:45;;;;;;;4.35;2.15;;;;;;;10.56;79.40;99864.03;4970638;28;20043;-67
2021/05/06 13:23:16;;;;;;;6.28;3.67;;;;;;;10.34;80.77;99875.31;4953120;28;20074;-68
2021/05/06 13:25:54;;;;;;;13.10;3.42;;;;;;;10.31;81.18;99875.16;4934884;28;20051;-67
2021/05/06 13:28:33;;;;;;;6.32;3.70;;;;;;;10.32;81.39;99885.84;4952485;28;20046;-69
2021/05/06 13:31:26;;;;;;;7.05;3.28;;;;;;;10.45;79.63;99884.00;4955653;28;20050;-69
2021/05/06 13:34:09;;;;;;;5.85;3.50;;;;;;;10.32;81.07;99885.06;4922473;28;20055;-69
2021/05/06 13:36:36;;;;;;;8.48;3.75;;;;;;;9.93;82.34;99888.91;4969422;28;20050;-67
2021/05/06 13:39:08;;;;;;;7.80;4.15;;;;;;;10.23;83.07;99900.81;4970342;28;20039;-67
2021/05/06 13:41:37;;;;;;;6.20;3.80;;;;;;;9.85;83.38;99906.25;4969985;28;20050;-67
2021/05/06 13:44:07;;;;;;;5.20;3.88;;;;;;;9.49;84.52;99906.66;4969763;28;20061;-67
2021/05/06 13:46:42;;;;;;;6.70;4.10;;;;;;;9.92;83.67;99915.59;4970246;28;20046;-70
2021/05/06 13:49:10;;;;;;;5.18;4.10;;;;;;;10.06;82.86;99915.38;4967509;28;20495;-67
2021/05/06 13:51:37;;;;;;;9.27;4.15;;;;;;;9.50;83.68;99913.75;4969066;28;20384;-67
2021/05/06 13:54:04;;;;;;;6.35;3.83;;;;;;;9.57;84.94;99914.06;4937268;28;20058;-68
2021/05/06 13:56:33;;;;;;;5.97;3.90;;;;;;;9.99;86.01;99912.34;4969663;28;20145;-69
2021/05/06 13:59:00;;;;;;;5.15;3.35;;;;;;;10.18;84.95;99912.81;4958543;28;20463;-70
2021/05/06 14:01:27;;;;;;;6.43;3.00;;;;;;;10.46;83.85;99913.94;4953239;28;20402;-68
2021/05/06 14:03:54;;;;;;;4.40;2.63;;;;;;;10.63;81.89;99902.84;4934434;29;20066;-67
2021/05/06 14:06:21;;;;;;;4.47;2.40;;;;;;;10.26;82.83;99902.88;4943011;28;20402;-67
2021/05/06 14:08:48;;;;;;;4.82;2.33;;;;;;;10.38;82.52;99897.47;4971244;28;20046;-70
2021/05/06 14:11:15;;;;;;;5.38;2.25;;;;;;;10.86;78.72;99886.81;4953590;28;20051;-69
2021/05/06 14:14:01;;;;;;;6.35;2.75;;;;;;;10.95;78.05;99890.28;4953179;28;20050;-69
2021/05/06 14:16:27;;;;;;;3.50;1.90;;;;;;;10.30;78.98;99898.34;4953702;28;20046;-70
2021/05/06 14:18:55;;;;;;;3.45;2.13;;;;;;;10.26;79.02;99900.13;4970246;28;20058;-71
2021/05/06 14:21:23;;;;;;;4.43;2.60;;;;;;;10.48;79.96;99906.16;4972267;28;20058;-69
2021/05/06 14:23:51;;;;;;;5.70;2.78;;;;;;;10.72;77.81;99902.81;4957396;28;20046;-68
2021/05/06 14:26:19;;;;;;;5.80;2.83;;;;;;;10.62;78.61;99911.44;4971675;28;20050;-66
2021/05/06 14:28:46;;;;;;;6.22;3.75;;;;;;;10.07;80.27;99912.34;4971791;28;20055;-63
2021/05/06 14:31:14;;;;;;;5.55;3.20;;;;;;;10.38;81.02;99928.56;4970950;28;20054;-62
2021/05/06 14:33:41;;;;;;;10.82;4.07;;;;;;;10.41;79.66;99916.88;4971334;28;20101;-63
2021/05/06 14:36:10;;;;;;;8.82;4.63;;;;;;;10.18;80.95;99932.88;4969747;28;20373;-66
2021/05/06 14:38:38;;;;;;;7.18;4.32;;;;;;;10.13;82.02;99940.47;4957127;28;20078;-64
2021/05/06 14:41:06;;;;;;;8.50;3.85;;;;;;;10.03;82.22;99949.88;4971005;28;20042;-67
2021/05/06 14:43:33;;;;;;;6.15;3.70;;;;;;;10.22;81.80;99945.97;4967554;28;20439;-65
2021/05/06 14:46:00;;;;;;;5.53;3.83;;;;;;;10.10;82.72;99955.72;4948737;28;20576;-65
2021/05/06 14:48:27;;;;;;;5.45;3.60;;;;;;;10.12;81.10;99967.22;4968973;28;20058;-65
2021/05/06 14:50:55;;;;;;;5.15;3.28;;;;;;;10.16;79.96;99976.41;4954712;28;20051;-63
2021/05/06 14:53:22;;;;;;;6.55;3.40;;;;;;;10.06;80.78;99976.75;4948964;28;20051;-64
2021/05/06 14:55:49;;;;;;;6.15;2.95;;;;;;;10.46;80.55;99973.72;4948385;28;20054;-67
2021/05/06 14:58:16;;;;;;;5.93;2.85;;;;;;;10.84;77.70;99977.25;4957465;28;20054;-67
2021/05/06 15:00:43;;;;;;;9.13;2.72;;;;;;;10.76;77.29;99978.09;4958698;28;20046;-66
2021/05/06 15:03:10;;;;;;;3.80;2.50;;;;;;;10.81;77.02;99975.97;4947739;28;20043;-66
2021/05/06 15:05:38;;;;;;;4.93;3.08;;;;;;;11.10;76.60;99991.69;4963457;28;20070;-65
2021/05/06 15:08:05;;;;;;;4.50;2.65;;;;;;;11.65;75.18;99980.41;4950027;28;20070;-65
2021/05/06 15:10:32;;;;;;;7.68;2.63;;;;;;;11.78;72.95;99977.38;4969448;28;20494;-65